This is the latest recevied weather packets stored in our database for station/object DC1MAK-13. If no packets are shown the sender has not sent any weather packets the latest 10 day(s).
| Time | Temp. | Humidity | Pressure | Rain* | Wind** | Luminosity | Snow |
|---|---|---|---|---|---|---|---|
| 1777844259 | 13.89° C | 62% | 985.1 hPa | - | - | - | - |
| 1777843959 | 13.89° C | 62% | 985.1 hPa | - | - | - | - |
| 1777843650 | 13.89° C | 62% | 985 hPa | - | - | - | - |
| 1777843346 | 13.89° C | 61% | 985.1 hPa | - | - | - | - |
| 1777843043 | 13.89° C | 60% | 985 hPa | - | - | - | - |
| 1777842439 | 13.33° C | 60% | 985 hPa | - | - | - | - |
| 1777842132 | 13.89° C | 59% | 984.9 hPa | - | - | - | - |
| 1777841828 | 13.89° C | 59% | 984.8 hPa | - | - | - | - |
| 1777841525 | 13.89° C | 58% | 984.8 hPa | - | - | - | - |
| 1777840619 | 14.44° C | 56% | 984.5 hPa | - | - | - | - |
| 1777840310 | 14.44° C | 57% | 984.5 hPa | - | - | - | - |
| 1777840007 | 14.44° C | 56% | 984.4 hPa | - | - | - | - |
| 1777839703 | 14.44° C | 55% | 984.4 hPa | - | - | - | - |
| 1777839099 | 14.44° C | 54% | 984.3 hPa | - | - | - | - |
| 1777838792 | 15° C | 54% | 984.3 hPa | - | - | - | - |
| 1777838489 | 15° C | 52% | 984.2 hPa | - | - | - | - |
| 1777837579 | 16.11° C | 47% | 984.3 hPa | - | - | - | - |
| 1777836971 | 16.67° C | 45% | 984 hPa | - | - | - | - |
| 1777836667 | 16.67° C | 46% | 984 hPa | - | - | - | - |
| 1777836364 | 17.22° C | 44% | 984 hPa | - | - | - | - |
| 1777835759 | 17.22° C | 44% | 983.9 hPa | - | - | - | - |
| 1777835453 | 17.22° C | 45% | 983.7 hPa | - | - | - | - |
| 1777835149 | 17.78° C | 45% | 983.7 hPa | - | - | - | - |
| 1777834846 | 17.78° C | 46% | 983.7 hPa | - | - | - | - |
| 1777833024 | 18.33° C | 53% | 983.2 hPa | - | - | - | - |
* Rain since midnight (hover to see other rain measurements)
** Current wind speed in m/s (hover to see current wind gust speed)